createdAt,value
2022-09-12T00:01:20.727Z,18.94
2022-09-12T00:03:47.246Z,17.52
2022-09-12T00:06:22.577Z,14.87
2022-09-12T00:08:49.636Z,13.97
2022-09-12T00:11:16.047Z,11.05
2022-09-12T00:13:42.572Z,10.39
2022-09-12T00:16:18.001Z,10.70
2022-09-12T00:18:46.230Z,12.80
2022-09-12T00:21:13.005Z,15.28
2022-09-12T00:23:39.419Z,15.22
2022-09-12T00:26:06.566Z,13.83
2022-09-12T00:28:34.094Z,13.26
2022-09-12T00:31:00.503Z,0.00
2022-09-12T00:33:26.920Z,0.00
2022-09-12T00:35:53.627Z,0.00
2022-09-12T00:38:20.329Z,1.87
2022-09-12T00:40:46.874Z,8.20
2022-09-12T00:43:32.026Z,14.85
2022-09-12T00:45:58.545Z,14.51
2022-09-12T00:48:31.986Z,15.27
2022-09-12T00:50:58.379Z,14.33
2022-09-12T00:53:24.755Z,14.26
2022-09-12T00:55:51.187Z,14.86
2022-09-12T00:58:23.409Z,12.99
2022-09-12T01:00:49.888Z,7.69
2022-09-12T01:03:17.913Z,9.35
2022-09-12T01:06:14.045Z,13.68
2022-09-12T01:08:41.133Z,13.57
2022-09-12T01:11:08.499Z,13.62
2022-09-12T01:13:35.312Z,13.77
2022-09-12T01:16:03.580Z,13.79
2022-09-12T01:18:42.513Z,14.08
2022-09-12T01:21:18.696Z,13.48
2022-09-12T01:23:53.731Z,12.60
2022-09-12T01:26:46.506Z,13.75
2022-09-12T01:29:31.507Z,12.53
2022-09-12T01:32:19.913Z,8.90
2022-09-12T01:34:54.136Z,6.96
2022-09-12T01:37:50.582Z,6.56
2022-09-12T01:40:33.384Z,7.09
2022-09-12T01:43:22.645Z,6.61
2022-09-12T01:46:34.242Z,11.51
2022-09-12T01:49:03.360Z,13.57
2022-09-12T01:51:36.133Z,8.19
2022-09-12T01:54:15.967Z,4.29
2022-09-12T01:56:42.658Z,4.93
2022-09-12T01:59:12.819Z,4.37
2022-09-12T02:01:42.080Z,0.35
2022-09-12T02:04:23.604Z,0.00
2022-09-12T02:06:56.895Z,0.00
2022-09-12T02:09:32.188Z,0.00
2022-09-12T02:11:59.269Z,0.00
2022-09-12T02:14:30.381Z,0.00
2022-09-12T02:17:18.772Z,0.00
2022-09-12T02:19:47.046Z,0.00
2022-09-12T02:22:16.044Z,0.00
2022-09-12T02:24:44.003Z,0.17
2022-09-12T02:27:15.144Z,2.94
2022-09-12T02:29:41.878Z,4.24
2022-09-12T02:32:26.936Z,5.40
2022-09-12T02:34:59.671Z,6.92
2022-09-12T02:38:02.057Z,8.94
2022-09-12T02:40:29.677Z,9.20
2022-09-12T02:42:56.316Z,9.72
2022-09-12T02:45:23.647Z,7.31
2022-09-12T02:47:56.432Z,5.93
2022-09-12T02:50:22.906Z,3.78
2022-09-12T02:52:49.343Z,4.71
2022-09-12T02:55:16.394Z,5.46
2022-09-12T02:57:42.851Z,4.53
2022-09-12T03:00:09.672Z,5.01
2022-09-12T03:02:58.667Z,5.86
2022-09-12T03:05:55.658Z,6.58
2022-09-12T03:08:34.252Z,6.51
2022-09-12T03:11:06.462Z,6.24
2022-09-12T03:13:46.441Z,0.53
2022-09-12T03:16:25.011Z,5.02
2022-09-12T03:19:06.292Z,8.74
2022-09-12T03:21:51.106Z,6.53
2022-09-12T03:24:43.186Z,6.41
2022-09-12T03:27:36.751Z,4.28
2022-09-12T03:30:05.179Z,1.65
2022-09-12T03:32:48.843Z,0.00
2022-09-12T03:35:17.979Z,0.00
2022-09-12T03:37:48.017Z,0.00
2022-09-12T03:40:15.518Z,0.00
2022-09-12T03:42:41.960Z,1.84
2022-09-12T03:45:08.923Z,0.95
2022-09-12T03:47:35.396Z,1.46
2022-09-12T03:50:02.189Z,2.90
2022-09-12T03:52:28.599Z,6.31
2022-09-12T03:54:55.055Z,6.83
2022-09-12T03:57:21.469Z,6.48
2022-09-12T03:59:49.581Z,4.16
2022-09-12T04:02:16.337Z,4.76
2022-09-12T04:04:43.226Z,3.19
2022-09-12T04:07:10.480Z,0.93
2022-09-12T04:09:36.971Z,0.84
2022-09-12T04:12:03.891Z,1.77
2022-09-12T04:14:30.309Z,3.55
2022-09-12T04:16:56.687Z,4.76
2022-09-12T04:19:23.547Z,7.37
2022-09-12T04:21:49.948Z,8.33
2022-09-12T04:24:16.414Z,8.64
2022-09-12T04:26:42.815Z,8.60
2022-09-12T04:29:14.970Z,8.61
2022-09-12T04:31:41.558Z,8.26
2022-09-12T04:34:07.954Z,8.11
2022-09-12T04:36:34.367Z,7.31
2022-09-12T04:39:01.338Z,7.10
2022-09-12T04:41:30.925Z,7.47
2022-09-12T04:43:58.878Z,8.18
2022-09-12T04:46:25.482Z,7.38
2022-09-12T04:48:56.496Z,7.06
2022-09-12T04:51:33.789Z,4.64
2022-09-12T04:54:01.795Z,4.18
2022-09-12T04:56:28.775Z,5.01
2022-09-12T04:58:57.332Z,5.66
2022-09-12T05:01:23.872Z,4.55
2022-09-12T05:03:50.633Z,4.34
2022-09-12T05:06:19.141Z,4.25
2022-09-12T05:08:45.710Z,3.94
2022-09-12T05:11:14.107Z,4.98
2022-09-12T05:13:40.679Z,4.34
2022-09-12T05:16:07.325Z,1.80
2022-09-12T05:18:34.539Z,0.87
2022-09-12T05:21:01.193Z,0.00
2022-09-12T05:23:28.043Z,0.00
2022-09-12T05:25:55.736Z,0.00
2022-09-12T05:28:22.297Z,0.00
2022-09-12T05:30:48.765Z,0.00
2022-09-12T05:33:15.448Z,0.00
2022-09-12T05:35:41.893Z,0.00
2022-09-12T05:38:08.382Z,0.00
2022-09-12T05:40:34.793Z,0.00
2022-09-12T05:43:01.183Z,0.00
2022-09-12T05:45:27.583Z,0.00
2022-09-12T05:47:56.972Z,0.00
2022-09-12T05:50:23.353Z,0.00
2022-09-12T05:52:50.492Z,0.00
2022-09-12T05:55:17.042Z,0.00
2022-09-12T05:57:46.558Z,0.00
2022-09-12T06:00:14.901Z,0.00
2022-09-12T06:02:41.417Z,0.00
2022-09-12T06:05:08.036Z,0.00
2022-09-12T06:07:35.646Z,0.00
2022-09-12T06:10:03.140Z,0.00
2022-09-12T06:12:30.223Z,0.00
2022-09-12T06:14:56.727Z,0.00
2022-09-12T06:17:23.148Z,0.00
2022-09-12T06:19:52.421Z,0.00
2022-09-12T06:22:19.231Z,0.00
2022-09-12T06:24:45.648Z,0.00
2022-09-12T06:27:12.044Z,0.00
2022-09-12T06:29:38.620Z,0.00
2022-09-12T06:32:05.137Z,0.73
2022-09-12T06:34:31.660Z,11.41
2022-09-12T06:36:58.040Z,23.79
2022-09-12T06:39:24.490Z,50.06
2022-09-12T06:41:51.345Z,55.79
2022-09-12T06:44:19.392Z,60.56
2022-09-12T06:46:45.861Z,63.25
2022-09-12T06:49:12.373Z,64.83
2022-09-12T06:51:38.783Z,73.07
2022-09-12T06:54:05.387Z,76.62
2022-09-12T06:56:31.922Z,76.89
2022-09-12T06:58:58.833Z,74.63
2022-09-12T07:01:26.885Z,71.84
2022-09-12T07:03:57.470Z,67.31
2022-09-12T07:06:29.697Z,65.96
2022-09-12T07:08:57.736Z,62.09
2022-09-12T07:11:25.704Z,56.40
2022-09-12T07:13:53.661Z,52.39
2022-09-12T07:16:20.332Z,49.62
2022-09-12T07:18:51.271Z,47.29
2022-09-12T07:21:17.655Z,44.39
2022-09-12T07:23:45.446Z,41.17
2022-09-12T07:26:12.560Z,38.28
2022-09-12T07:28:39.152Z,34.92
2022-09-12T07:31:06.530Z,33.78
2022-09-12T07:33:33.002Z,30.73
2022-09-12T07:36:03.861Z,28.67
2022-09-12T07:38:30.909Z,25.69
2022-09-12T07:40:57.289Z,23.14
2022-09-12T07:43:23.743Z,18.88
2022-09-12T07:45:55.452Z,18.54
2022-09-12T07:48:21.870Z,14.72
2022-09-12T07:50:48.239Z,13.28
2022-09-12T07:53:14.745Z,7.95
2022-09-12T07:55:41.122Z,4.55
2022-09-12T07:58:07.662Z,0.00
2022-09-12T08:00:36.102Z,0.00
2022-09-12T08:03:07.214Z,0.00
2022-09-12T08:05:33.595Z,0.00
2022-09-12T08:08:00.064Z,0.00
2022-09-12T08:10:26.436Z,0.00
2022-09-12T08:12:52.835Z,0.00
2022-09-12T08:15:20.254Z,0.00
2022-09-12T08:17:46.666Z,0.00
2022-09-12T08:20:13.128Z,0.00
2022-09-12T08:22:40.655Z,0.00
2022-09-12T08:25:08.652Z,0.00
2022-09-12T08:27:35.016Z,0.00
2022-09-12T08:30:01.562Z,0.00
2022-09-12T08:32:28.049Z,0.00
2022-09-12T08:34:54.529Z,0.00
2022-09-12T08:37:20.894Z,1.54
2022-09-12T08:39:47.794Z,3.36
2022-09-12T08:42:24.401Z,3.58
2022-09-12T08:45:11.086Z,3.42
2022-09-12T08:47:39.055Z,4.05
2022-09-12T08:50:08.780Z,3.20
2022-09-12T08:52:59.605Z,1.54
2022-09-12T08:55:33.585Z,0.00
2022-09-12T08:58:01.422Z,0.00
2022-09-12T09:00:34.615Z,0.00
2022-09-12T09:03:16.713Z,0.00
2022-09-12T09:05:57.717Z,0.00
2022-09-12T09:08:43.184Z,0.00
2022-09-12T09:11:42.972Z,0.00
2022-09-12T09:14:54.441Z,0.77
2022-09-12T09:17:25.338Z,1.92
2022-09-12T09:20:04.878Z,1.43
2022-09-12T09:22:56.776Z,6.77
2022-09-12T09:25:49.810Z,23.93
2022-09-12T09:28:25.716Z,37.57
2022-09-12T09:30:52.309Z,39.47
2022-09-12T09:33:22.520Z,44.66
2022-09-12T09:35:54.636Z,45.83
2022-09-12T09:38:33.139Z,55.75
2022-09-12T09:41:21.476Z,80.05
2022-09-12T09:43:47.889Z,88.49
2022-09-12T09:46:14.427Z,95.03
2022-09-12T09:48:42.070Z,94.87
2022-09-12T09:51:09.229Z,91.48
2022-09-12T09:53:42.442Z,90.23
2022-09-12T09:56:33.988Z,92.40
2022-09-12T09:59:08.655Z,94.67
2022-09-12T10:01:35.119Z,96.59
2022-09-12T10:04:01.709Z,100.00
2022-09-12T10:06:32.758Z,99.77
2022-09-12T10:09:19.754Z,100.00
2022-09-12T10:11:47.288Z,100.00
2022-09-12T10:14:35.047Z,100.00
2022-09-12T10:17:04.032Z,100.00
2022-09-12T10:19:37.723Z,100.00
2022-09-12T10:22:04.669Z,100.00
2022-09-12T10:24:43.526Z,100.00
2022-09-12T10:27:12.894Z,100.00
2022-09-12T10:30:00.840Z,100.00
2022-09-12T10:32:31.270Z,100.00
2022-09-12T10:35:09.055Z,100.00
2022-09-12T10:37:37.296Z,100.00
2022-09-12T10:40:05.502Z,100.00
2022-09-12T10:42:42.929Z,100.00
2022-09-12T10:45:42.026Z,100.00
2022-09-12T10:48:28.919Z,100.00
2022-09-12T10:50:56.714Z,100.00
2022-09-12T10:53:23.849Z,100.00
2022-09-12T10:56:06.766Z,100.00
2022-09-12T10:58:42.423Z,100.00
2022-09-12T11:01:41.481Z,100.00
2022-09-12T11:04:07.887Z,100.00
2022-09-12T11:06:48.226Z,100.00
2022-09-12T11:09:29.110Z,100.00
2022-09-12T11:11:59.024Z,100.00
2022-09-12T11:14:48.644Z,100.00
2022-09-12T11:18:02.840Z,100.00
2022-09-12T11:20:44.157Z,100.00
2022-09-12T11:23:42.487Z,100.00
2022-09-12T11:26:31.455Z,100.00
2022-09-12T11:29:24.221Z,100.00
2022-09-12T11:32:12.264Z,100.00
2022-09-12T11:37:10.695Z,100.00
2022-09-12T11:39:43.400Z,100.00
2022-09-12T11:42:15.417Z,100.00
2022-09-12T11:44:43.347Z,100.00
2022-09-12T11:47:13.484Z,100.00
2022-09-12T11:49:48.585Z,100.00
2022-09-12T11:52:24.396Z,100.00
2022-09-12T11:55:00.132Z,100.00
2022-09-12T11:57:45.742Z,100.00
2022-09-12T12:00:22.211Z,100.00
2022-09-12T12:02:51.507Z,100.00
2022-09-12T12:05:42.237Z,100.00
2022-09-12T12:08:09.396Z,100.00
2022-09-12T12:10:56.350Z,100.00
2022-09-12T12:13:27.633Z,100.00
2022-09-12T12:15:58.477Z,100.00
2022-09-12T12:18:26.277Z,100.00
2022-09-12T12:20:53.150Z,100.00
2022-09-12T12:23:23.368Z,100.00
2022-09-12T12:25:54.938Z,100.00
2022-09-12T12:28:49.438Z,100.00
2022-09-12T12:31:16.162Z,100.00
2022-09-12T12:33:45.650Z,100.00
2022-09-12T12:36:30.994Z,100.00
2022-09-12T12:38:57.395Z,100.00
2022-09-12T12:41:24.018Z,100.00
2022-09-12T12:43:51.490Z,100.00
2022-09-12T12:46:19.118Z,100.00
2022-09-12T12:49:04.132Z,100.00
2022-09-12T12:51:36.279Z,100.00
2022-09-12T12:54:27.107Z,100.00
2022-09-12T12:57:23.794Z,100.00
2022-09-12T13:00:02.124Z,100.00
2022-09-12T13:02:34.261Z,100.00
2022-09-12T13:05:02.505Z,100.00
2022-09-12T13:07:38.809Z,100.00
2022-09-12T13:10:06.859Z,100.00
2022-09-12T13:12:37.257Z,100.00
2022-09-12T13:15:25.169Z,100.00
2022-09-12T13:17:51.976Z,100.00
2022-09-12T13:20:28.750Z,100.00
2022-09-12T13:22:55.941Z,100.00
2022-09-12T13:25:35.767Z,100.00
2022-09-12T13:28:11.344Z,100.00
2022-09-12T13:30:46.131Z,100.00
2022-09-12T13:33:20.100Z,100.00
2022-09-12T13:35:56.142Z,100.00
2022-09-12T13:39:20.085Z,100.00
2022-09-12T13:42:05.244Z,100.00
2022-09-12T13:44:31.943Z,100.00
2022-09-12T13:47:01.394Z,100.00
2022-09-12T13:49:37.536Z,100.00
2022-09-12T13:52:07.836Z,100.00
2022-09-12T13:54:34.469Z,100.00
2022-09-12T13:57:00.951Z,100.00
2022-09-12T13:59:27.884Z,100.00
2022-09-12T14:01:54.320Z,100.00
2022-09-12T14:04:41.313Z,100.00
2022-09-12T14:07:28.215Z,100.00
2022-09-12T14:09:56.025Z,100.00
2022-09-12T14:12:26.323Z,100.00
2022-09-12T14:14:53.058Z,100.00
2022-09-12T14:17:32.352Z,100.00
2022-09-12T14:20:02.012Z,100.00
2022-09-12T14:22:29.767Z,99.66
2022-09-12T14:24:56.863Z,98.04
2022-09-12T14:27:29.048Z,97.90
2022-09-12T14:30:03.708Z,96.31
2022-09-12T14:32:30.236Z,96.93
2022-09-12T14:35:11.988Z,97.43
2022-09-12T14:37:47.856Z,100.00
2022-09-12T14:40:19.606Z,97.76
2022-09-12T14:42:46.734Z,100.00
2022-09-12T14:45:31.332Z,99.34
2022-09-12T14:47:57.954Z,100.00
2022-09-12T14:50:26.446Z,100.00
2022-09-12T14:53:03.868Z,100.00
2022-09-12T14:55:31.395Z,100.00
2022-09-12T14:58:26.508Z,98.18
2022-09-12T15:00:53.765Z,99.27
2022-09-12T15:03:24.953Z,96.71
2022-09-12T15:05:51.416Z,94.16
2022-09-12T15:08:17.822Z,91.08
2022-09-12T15:10:44.358Z,93.63
2022-09-12T15:13:14.269Z,95.99
2022-09-12T15:15:45.395Z,94.47
2022-09-12T15:18:12.128Z,95.41
2022-09-12T15:20:39.594Z,99.16
2022-09-12T15:23:53.712Z,97.72
2022-09-12T15:26:26.368Z,97.24
2022-09-12T15:28:52.833Z,97.29
2022-09-12T15:31:27.196Z,95.93
2022-09-12T15:33:54.087Z,95.78
2022-09-12T15:36:21.701Z,95.57
2022-09-12T15:38:48.263Z,95.14
2022-09-12T15:41:19.358Z,97.84
2022-09-12T15:43:45.929Z,98.42
2022-09-12T15:46:13.077Z,94.95
2022-09-12T15:48:39.768Z,100.00
2022-09-12T15:51:15.055Z,96.14
2022-09-12T15:53:42.003Z,94.33
2022-09-12T15:56:08.750Z,93.36
2022-09-12T15:58:35.309Z,99.92
2022-09-12T16:01:02.364Z,100.00
2022-09-12T16:03:29.001Z,100.00
2022-09-12T16:05:57.217Z,100.00
2022-09-12T16:08:23.943Z,100.00
2022-09-12T16:10:56.531Z,100.00
2022-09-12T16:13:23.595Z,100.00
2022-09-12T16:15:50.435Z,100.00
2022-09-12T16:18:16.892Z,100.00
2022-09-12T16:20:43.372Z,100.00
2022-09-12T16:23:13.053Z,100.00
2022-09-12T16:25:40.420Z,100.00
2022-09-12T16:28:06.868Z,100.00
2022-09-12T16:30:33.902Z,100.00
2022-09-12T16:33:00.305Z,100.00
2022-09-12T16:35:26.906Z,100.00
2022-09-12T16:37:53.345Z,100.00
2022-09-12T16:40:19.843Z,100.00
2022-09-12T16:42:46.391Z,100.00
2022-09-12T16:45:12.945Z,100.00
2022-09-12T16:47:39.472Z,100.00
2022-09-12T16:50:06.782Z,100.00
2022-09-12T16:52:36.483Z,100.00
2022-09-12T16:55:02.966Z,100.00
2022-09-12T16:57:29.375Z,100.00
2022-09-12T16:59:55.818Z,100.00
2022-09-12T17:02:22.273Z,100.00
2022-09-12T17:04:48.844Z,100.00
2022-09-12T17:07:15.243Z,100.00
2022-09-12T17:09:45.057Z,100.00
2022-09-12T17:12:14.009Z,100.00
2022-09-12T17:14:40.404Z,100.00
2022-09-12T17:17:07.201Z,100.00
2022-09-12T17:19:33.589Z,100.00
2022-09-12T17:22:00.040Z,100.00
2022-09-12T17:24:26.732Z,100.00
2022-09-12T17:26:53.633Z,100.00
2022-09-12T17:29:20.384Z,100.00
2022-09-12T17:31:46.795Z,100.00
2022-09-12T17:34:14.467Z,100.00
2022-09-12T17:36:44.020Z,100.00
2022-09-12T17:39:10.609Z,100.00
2022-09-12T17:41:37.601Z,100.00
2022-09-12T17:44:04.826Z,100.00
2022-09-12T17:46:36.046Z,100.00
2022-09-12T17:49:04.490Z,100.00
2022-09-12T17:51:31.382Z,100.00
2022-09-12T17:53:59.098Z,100.00
2022-09-12T17:56:27.859Z,100.00
2022-09-12T17:58:55.554Z,100.00
2022-09-12T18:01:40.529Z,100.00
2022-09-12T18:04:07.004Z,100.00
2022-09-12T18:06:33.456Z,100.00
2022-09-12T18:09:04.468Z,100.00
2022-09-12T18:11:30.914Z,100.00
2022-09-12T18:14:00.212Z,100.00
2022-09-12T18:16:28.109Z,100.00
2022-09-12T18:18:55.213Z,100.00
2022-09-12T18:21:21.588Z,100.00
2022-09-12T18:23:47.982Z,100.00
2022-09-12T18:26:14.609Z,100.00
2022-09-12T18:28:42.536Z,100.00
2022-09-12T18:31:17.548Z,100.00
2022-09-12T18:33:44.033Z,100.00
2022-09-12T18:36:11.433Z,100.00
2022-09-12T18:38:38.213Z,100.00
2022-09-12T18:41:09.312Z,100.00
2022-09-12T18:43:35.813Z,100.00
2022-09-12T18:46:05.915Z,100.00
2022-09-12T18:48:32.728Z,100.00
2022-09-12T18:51:12.254Z,100.00
2022-09-12T18:53:38.883Z,100.00
2022-09-12T18:56:10.366Z,100.00
2022-09-12T18:58:37.784Z,100.00
2022-09-12T19:01:15.339Z,100.00
2022-09-12T19:03:41.956Z,100.00
2022-09-12T19:06:19.420Z,100.00
2022-09-12T19:08:45.831Z,100.00
2022-09-12T19:11:12.608Z,100.00
2022-09-12T19:13:40.549Z,100.00
2022-09-12T19:16:09.253Z,100.00
2022-09-12T19:18:37.002Z,100.00
2022-09-12T19:21:13.659Z,100.00
2022-09-12T19:23:40.122Z,100.00
2022-09-12T19:26:07.732Z,100.00
2022-09-12T19:28:34.536Z,100.00
2022-09-12T19:31:05.361Z,100.00
2022-09-12T19:33:31.889Z,100.00
2022-09-12T19:36:10.683Z,100.00
2022-09-12T19:38:48.671Z,100.00
2022-09-12T19:41:15.404Z,100.00
2022-09-12T19:43:42.062Z,100.00
2022-09-12T19:46:08.663Z,100.00
2022-09-12T19:48:35.368Z,100.00
2022-09-12T19:51:02.808Z,100.00
2022-09-12T19:53:29.463Z,100.00
2022-09-12T19:56:02.795Z,100.00
2022-09-12T19:58:29.737Z,100.00
2022-09-12T20:00:56.527Z,100.00
2022-09-12T20:03:23.344Z,100.00
2022-09-12T20:05:49.734Z,100.00
2022-09-12T20:08:16.105Z,100.00
2022-09-12T20:10:42.473Z,100.00
2022-09-12T20:13:08.864Z,100.00
2022-09-12T20:15:35.323Z,100.00
2022-09-12T20:18:01.729Z,100.00
2022-09-12T20:20:28.206Z,100.00
2022-09-12T20:22:54.619Z,100.00
2022-09-12T20:25:21.055Z,100.00
2022-09-12T20:27:48.104Z,100.00
2022-09-12T20:30:14.903Z,100.00
2022-09-12T20:32:42.072Z,100.00
2022-09-12T20:35:08.917Z,100.00
2022-09-12T20:37:35.903Z,100.00
2022-09-12T20:40:02.771Z,100.00
2022-09-12T20:42:29.360Z,100.00
2022-09-12T20:44:56.007Z,100.00
2022-09-12T20:47:22.412Z,100.00
2022-09-12T20:49:48.844Z,100.00
2022-09-12T20:52:15.506Z,100.00
2022-09-12T20:54:41.895Z,100.00
2022-09-12T20:57:08.293Z,100.00
2022-09-12T20:59:35.185Z,100.00
2022-09-12T21:02:01.668Z,100.00
2022-09-12T21:04:28.221Z,100.00
2022-09-12T21:06:54.768Z,100.00
2022-09-12T21:09:21.198Z,100.00
2022-09-12T21:11:47.621Z,100.00
2022-09-12T21:14:14.006Z,100.00
2022-09-12T21:16:40.466Z,100.00
2022-09-12T21:19:06.893Z,100.00
2022-09-12T21:21:33.355Z,100.00
2022-09-12T21:24:00.640Z,100.00
2022-09-12T21:26:27.152Z,100.00
2022-09-12T21:28:53.538Z,100.00
2022-09-12T21:31:20.033Z,100.00
2022-09-12T21:33:46.584Z,100.00
2022-09-12T21:36:13.064Z,100.00
2022-09-12T21:38:39.506Z,100.00
2022-09-12T21:41:06.605Z,100.00
2022-09-12T21:43:33.010Z,100.00
2022-09-12T21:46:00.241Z,100.00
2022-09-12T21:48:26.875Z,100.00
2022-09-12T21:50:53.339Z,100.00
2022-09-12T21:53:19.810Z,100.00
2022-09-12T21:55:46.172Z,100.00
2022-09-12T21:58:12.582Z,100.00
2022-09-12T22:00:41.055Z,100.00
2022-09-12T22:03:08.566Z,100.00
2022-09-12T22:05:35.327Z,100.00
2022-09-12T22:08:02.085Z,100.00
2022-09-12T22:10:28.494Z,100.00
2022-09-12T22:12:54.950Z,100.00
2022-09-12T22:15:39.924Z,100.00
2022-09-12T22:18:07.539Z,100.00
2022-09-12T22:20:33.939Z,100.00
2022-09-12T22:23:23.835Z,100.00
2022-09-12T22:25:51.161Z,100.00
2022-09-12T22:28:17.537Z,100.00
2022-09-12T22:30:47.784Z,100.00
2022-09-12T22:33:14.291Z,100.00
2022-09-12T22:35:40.666Z,100.00
2022-09-12T22:38:07.040Z,100.00
2022-09-12T22:40:33.467Z,100.00
2022-09-12T22:42:59.849Z,100.00
2022-09-12T22:45:26.224Z,100.00
2022-09-12T22:47:52.735Z,100.00
2022-09-12T22:50:19.105Z,100.00
2022-09-12T22:52:45.555Z,100.00
2022-09-12T22:55:11.919Z,100.00
2022-09-12T22:57:38.336Z,100.00
2022-09-12T23:00:08.073Z,100.00
2022-09-12T23:02:34.873Z,100.00
2022-09-12T23:05:01.235Z,100.00
2022-09-12T23:07:27.696Z,100.00
2022-09-12T23:09:54.137Z,100.00
2022-09-12T23:12:20.527Z,100.00
2022-09-12T23:14:47.456Z,100.00
2022-09-12T23:17:13.824Z,100.00
2022-09-12T23:19:40.235Z,100.00
2022-09-12T23:22:06.658Z,100.00
2022-09-12T23:24:33.106Z,100.00
2022-09-12T23:26:59.587Z,100.00
2022-09-12T23:29:26.908Z,100.00
2022-09-12T23:31:53.390Z,100.00
2022-09-12T23:34:19.913Z,100.00
2022-09-12T23:36:46.335Z,100.00
2022-09-12T23:39:12.890Z,100.00
2022-09-12T23:41:40.396Z,100.00
2022-09-12T23:44:06.797Z,100.00
2022-09-12T23:46:33.666Z,100.00
2022-09-12T23:49:00.054Z,100.00
2022-09-12T23:51:27.076Z,100.00
2022-09-12T23:53:53.464Z,100.00
2022-09-12T23:56:19.893Z,100.00
2022-09-12T23:58:46.298Z,100.00
